sensor_id;sensor_type;location;lat;lon;timestamp;pressure;altitude;pressure_sealevel;temperature;humidity
21658;BME280;10990;48.174;9.782;2023-12-20T00:00:10;94936.53;;;3.68;100.00
21658;BME280;10990;48.174;9.782;2023-12-20T00:02:37;94940.13;;;3.67;100.00
21658;BME280;10990;48.174;9.782;2023-12-20T00:05:04;94920.16;;;3.66;100.00
21658;BME280;10990;48.174;9.782;2023-12-20T00:07:33;94921.00;;;3.67;100.00
21658;BME280;10990;48.174;9.782;2023-12-20T00:09:59;94904.34;;;3.68;100.00
21658;BME280;10990;48.174;9.782;2023-12-20T00:12:26;94897.47;;;3.67;100.00
21658;BME280;10990;48.174;9.782;2023-12-20T00:14:52;94884.13;;;3.70;100.00
21658;BME280;10990;48.174;9.782;2023-12-20T00:17:18;94881.63;;;3.68;100.00
21658;BME280;10990;48.174;9.782;2023-12-20T00:19:45;94863.31;;;3.68;100.00
21658;BME280;10990;48.174;9.782;2023-12-20T00:22:11;94862.88;;;3.63;100.00
21658;BME280;10990;48.174;9.782;2023-12-20T00:24:40;94844.72;;;3.62;100.00
21658;BME280;10990;48.174;9.782;2023-12-20T00:27:06;94836.03;;;3.61;100.00
21658;BME280;10990;48.174;9.782;2023-12-20T00:29:33;94820.81;;;3.66;100.00
21658;BME280;10990;48.174;9.782;2023-12-20T00:31:59;94817.47;;;3.64;100.00
21658;BME280;10990;48.174;9.782;2023-12-20T00:34:27;94789.81;;;3.62;100.00
21658;BME280;10990;48.174;9.782;2023-12-20T00:36:54;94768.69;;;3.53;100.00
21658;BME280;10990;48.174;9.782;2023-12-20T00:39:20;94762.00;;;3.61;100.00
21658;BME280;10990;48.174;9.782;2023-12-20T00:41:49;94735.28;;;3.57;100.00
21658;BME280;10990;48.174;9.782;2023-12-20T00:44:16;94716.03;;;3.58;100.00
21658;BME280;10990;48.174;9.782;2023-12-20T00:46:42;94712.00;;;3.54;100.00
21658;BME280;10990;48.174;9.782;2023-12-20T00:49:08;94694.41;;;3.56;100.00
21658;BME280;10990;48.174;9.782;2023-12-20T00:51:35;94669.91;;;3.57;100.00
21658;BME280;10990;48.174;9.782;2023-12-20T00:54:01;94646.66;;;3.54;100.00
21658;BME280;10990;48.174;9.782;2023-12-20T00:56:27;94636.47;;;3.51;100.00
21658;BME280;10990;48.174;9.782;2023-12-20T00:58:56;94618.69;;;3.45;100.00
21658;BME280;10990;48.174;9.782;2023-12-20T01:01:23;94594.09;;;3.47;100.00
21658;BME280;10990;48.174;9.782;2023-12-20T01:03:49;94568.78;;;3.48;100.00
21658;BME280;10990;48.174;9.782;2023-12-20T01:06:15;94553.34;;;3.45;100.00
21658;BME280;10990;48.174;9.782;2023-12-20T01:08:42;94531.63;;;3.44;100.00
21658;BME280;10990;48.174;9.782;2023-12-20T01:11:08;94507.13;;;3.45;100.00
21658;BME280;10990;48.174;9.782;2023-12-20T01:13:34;94485.25;;;3.46;100.00
21658;BME280;10990;48.174;9.782;2023-12-20T01:16:04;94464.91;;;3.50;100.00
21658;BME280;10990;48.174;9.782;2023-12-20T01:18:30;94439.06;;;3.47;100.00
21658;BME280;10990;48.174;9.782;2023-12-20T01:20:56;94421.31;;;3.50;100.00
21658;BME280;10990;48.174;9.782;2023-12-20T01:23:27;94413.59;;;3.49;100.00
21658;BME280;10990;48.174;9.782;2023-12-20T01:25:53;94396.38;;;3.46;100.00
21658;BME280;10990;48.174;9.782;2023-12-20T01:28:19;94380.72;;;3.46;100.00
21658;BME280;10990;48.174;9.782;2023-12-20T01:30:46;94371.94;;;3.47;100.00
21658;BME280;10990;48.174;9.782;2023-12-20T01:33:14;94356.25;;;3.47;100.00
21658;BME280;10990;48.174;9.782;2023-12-20T01:35:41;94331.75;;;3.48;100.00
21658;BME280;10990;48.174;9.782;2023-12-20T01:38:08;94317.84;;;3.48;100.00
21658;BME280;10990;48.174;9.782;2023-12-20T01:40:35;94294.06;;;3.51;100.00
21658;BME280;10990;48.174;9.782;2023-12-20T01:43:03;94276.44;;;3.53;100.00
21658;BME280;10990;48.174;9.782;2023-12-20T01:45:31;94271.34;;;3.51;100.00
21658;BME280;10990;48.174;9.782;2023-12-20T01:47:58;94245.50;;;3.48;100.00
21658;BME280;10990;48.174;9.782;2023-12-20T01:50:28;94231.19;;;3.52;100.00
21658;BME280;10990;48.174;9.782;2023-12-20T01:52:57;94214.41;;;3.55;100.00
21658;BME280;10990;48.174;9.782;2023-12-20T01:55:26;94200.66;;;3.53;100.00
21658;BME280;10990;48.174;9.782;2023-12-20T01:57:53;94197.06;;;3.54;100.00
21658;BME280;10990;48.174;9.782;2023-12-20T02:00:22;94183.84;;;3.55;100.00
21658;BME280;10990;48.174;9.782;2023-12-20T02:02:50;94181.78;;;3.59;100.00
21658;BME280;10990;48.174;9.782;2023-12-20T02:05:16;94179.44;;;3.56;100.00
21658;BME280;10990;48.174;9.782;2023-12-20T02:07:45;94169.69;;;3.58;100.00
21658;BME280;10990;48.174;9.782;2023-12-20T02:10:11;94155.63;;;3.59;100.00
21658;BME280;10990;48.174;9.782;2023-12-20T02:12:38;94147.50;;;3.62;100.00
21658;BME280;10990;48.174;9.782;2023-12-20T02:15:05;94137.03;;;3.62;100.00
21658;BME280;10990;48.174;9.782;2023-12-20T02:17:32;94134.03;;;3.57;100.00
21658;BME280;10990;48.174;9.782;2023-12-20T02:19:58;94118.22;;;3.58;100.00
21658;BME280;10990;48.174;9.782;2023-12-20T02:22:27;94109.41;;;3.59;100.00
21658;BME280;10990;48.174;9.782;2023-12-20T02:24:54;94094.41;;;3.62;100.00
21658;BME280;10990;48.174;9.782;2023-12-20T02:27:20;94081.03;;;3.65;100.00
21658;BME280;10990;48.174;9.782;2023-12-20T02:29:47;94067.44;;;3.61;100.00
21658;BME280;10990;48.174;9.782;2023-12-20T02:32:14;94048.38;;;3.69;100.00
21658;BME280;10990;48.174;9.782;2023-12-20T02:34:40;94038.41;;;3.64;100.00
21658;BME280;10990;48.174;9.782;2023-12-20T02:37:06;94026.53;;;3.70;100.00
21658;BME280;10990;48.174;9.782;2023-12-20T02:39:35;94037.13;;;3.68;100.00
21658;BME280;10990;48.174;9.782;2023-12-20T02:42:01;94017.31;;;3.66;100.00
21658;BME280;10990;48.174;9.782;2023-12-20T02:44:27;94016.38;;;3.67;100.00
21658;BME280;10990;48.174;9.782;2023-12-20T02:46:54;94003.28;;;3.67;100.00
21658;BME280;10990;48.174;9.782;2023-12-20T02:49:20;93991.56;;;3.71;100.00
21658;BME280;10990;48.174;9.782;2023-12-20T02:51:46;93981.47;;;3.76;100.00
21658;BME280;10990;48.174;9.782;2023-12-20T02:54:12;93973.13;;;3.72;100.00
21658;BME280;10990;48.174;9.782;2023-12-20T02:56:41;93957.13;;;3.75;100.00
21658;BME280;10990;48.174;9.782;2023-12-20T02:59:07;93947.19;;;3.79;100.00
21658;BME280;10990;48.174;9.782;2023-12-20T03:01:34;93947.69;;;3.82;100.00
21658;BME280;10990;48.174;9.782;2023-12-20T03:04:00;93939.09;;;3.90;100.00
21658;BME280;10990;48.174;9.782;2023-12-20T03:06:26;93931.13;;;3.92;100.00
21658;BME280;10990;48.174;9.782;2023-12-20T03:08:53;93934.94;;;3.97;100.00
21658;BME280;10990;48.174;9.782;2023-12-20T03:11:19;93915.78;;;3.97;100.00
21658;BME280;10990;48.174;9.782;2023-12-20T03:13:48;93898.31;;;3.97;100.00
21658;BME280;10990;48.174;9.782;2023-12-20T03:16:14;93879.31;;;3.95;100.00
21658;BME280;10990;48.174;9.782;2023-12-20T03:18:40;93871.31;;;3.97;100.00
21658;BME280;10990;48.174;9.782;2023-12-20T03:21:06;93857.09;;;3.99;100.00
21658;BME280;10990;48.174;9.782;2023-12-20T03:23:32;93841.09;;;4.02;100.00
21658;BME280;10990;48.174;9.782;2023-12-20T03:25:59;93836.84;;;4.01;100.00
21658;BME280;10990;48.174;9.782;2023-12-20T03:28:26;93821.66;;;4.05;100.00
21658;BME280;10990;48.174;9.782;2023-12-20T03:30:54;93815.31;;;4.08;100.00
21658;BME280;10990;48.174;9.782;2023-12-20T03:33:21;93810.06;;;4.08;100.00
21658;BME280;10990;48.174;9.782;2023-12-20T03:35:47;93801.91;;;4.11;100.00
21658;BME280;10990;48.174;9.782;2023-12-20T03:38:13;93793.13;;;4.12;100.00
21658;BME280;10990;48.174;9.782;2023-12-20T03:40:39;93783.28;;;4.14;100.00
21658;BME280;10990;48.174;9.782;2023-12-20T03:43:05;93788.53;;;4.14;100.00
21658;BME280;10990;48.174;9.782;2023-12-20T03:45:32;93784.47;;;4.19;100.00
21658;BME280;10990;48.174;9.782;2023-12-20T03:48:00;93775.28;;;4.15;100.00
21658;BME280;10990;48.174;9.782;2023-12-20T03:50:27;93769.72;;;4.10;100.00
21658;BME280;10990;48.174;9.782;2023-12-20T03:52:53;93754.19;;;4.09;100.00
21658;BME280;10990;48.174;9.782;2023-12-20T03:55:19;93749.28;;;4.14;100.00
21658;BME280;10990;48.174;9.782;2023-12-20T03:57:45;93750.44;;;4.11;100.00
21658;BME280;10990;48.174;9.782;2023-12-20T04:00:14;93717.41;;;4.10;100.00
21658;BME280;10990;48.174;9.782;2023-12-20T04:02:42;93719.88;;;4.12;100.00
21658;BME280;10990;48.174;9.782;2023-12-20T04:05:11;93701.69;;;4.10;100.00
21658;BME280;10990;48.174;9.782;2023-12-20T04:07:38;93698.28;;;4.10;100.00
21658;BME280;10990;48.174;9.782;2023-12-20T04:10:05;93694.66;;;4.11;100.00
21658;BME280;10990;48.174;9.782;2023-12-20T04:12:32;93693.19;;;4.08;100.00
21658;BME280;10990;48.174;9.782;2023-12-20T04:14:59;93696.47;;;4.10;100.00
21658;BME280;10990;48.174;9.782;2023-12-20T04:17:25;93687.16;;;4.16;100.00
21658;BME280;10990;48.174;9.782;2023-12-20T04:19:51;93687.50;;;4.13;100.00
21658;BME280;10990;48.174;9.782;2023-12-20T04:22:20;93685.69;;;4.13;100.00
21658;BME280;10990;48.174;9.782;2023-12-20T04:24:47;93686.03;;;4.18;100.00
21658;BME280;10990;48.174;9.782;2023-12-20T04:27:13;93677.69;;;4.15;100.00
21658;BME280;10990;48.174;9.782;2023-12-20T04:29:39;93682.25;;;4.13;100.00
21658;BME280;10990;48.174;9.782;2023-12-20T04:32:06;93683.59;;;4.17;100.00
21658;BME280;10990;48.174;9.782;2023-12-20T04:34:32;93682.09;;;4.14;100.00
21658;BME280;10990;48.174;9.782;2023-12-20T04:36:59;93673.13;;;4.17;100.00
21658;BME280;10990;48.174;9.782;2023-12-20T04:39:28;93673.41;;;4.14;100.00
21658;BME280;10990;48.174;9.782;2023-12-20T04:41:54;93670.00;;;4.13;100.00
21658;BME280;10990;48.174;9.782;2023-12-20T04:44:20;93657.22;;;4.10;100.00
21658;BME280;10990;48.174;9.782;2023-12-20T04:46:47;93653.34;;;4.14;100.00
21658;BME280;10990;48.174;9.782;2023-12-20T04:49:13;93658.72;;;4.13;100.00
21658;BME280;10990;48.174;9.782;2023-12-20T04:51:39;93645.50;;;4.14;100.00
21658;BME280;10990;48.174;9.782;2023-12-20T04:54:05;93645.50;;;4.14;100.00
21658;BME280;10990;48.174;9.782;2023-12-20T04:56:34;93644.63;;;4.14;100.00
21658;BME280;10990;48.174;9.782;2023-12-20T04:59:00;93640.41;;;4.13;100.00
21658;BME280;10990;48.174;9.782;2023-12-20T05:01:27;93634.50;;;4.11;100.00
21658;BME280;10990;48.174;9.782;2023-12-20T05:03:53;93632.72;;;4.11;100.00
21658;BME280;10990;48.174;9.782;2023-12-20T05:06:19;93632.56;;;4.13;100.00
21658;BME280;10990;48.174;9.782;2023-12-20T05:08:45;93636.31;;;4.10;100.00
21658;BME280;10990;48.174;9.782;2023-12-20T05:11:12;93629.28;;;4.11;100.00
21658;BME280;10990;48.174;9.782;2023-12-20T05:13:40;93626.84;;;4.09;100.00
21658;BME280;10990;48.174;9.782;2023-12-20T05:16:07;93627.66;;;4.10;100.00
21658;BME280;10990;48.174;9.782;2023-12-20T05:18:33;93624.22;;;4.09;100.00
21658;BME280;10990;48.174;9.782;2023-12-20T05:20:59;93621.41;;;4.11;100.00
21658;BME280;10990;48.174;9.782;2023-12-20T05:23:25;93630.94;;;4.12;100.00
21658;BME280;10990;48.174;9.782;2023-12-20T05:25:51;93631.25;;;4.09;100.00
21658;BME280;10990;48.174;9.782;2023-12-20T05:28:17;93622.75;;;4.07;100.00
21658;BME280;10990;48.174;9.782;2023-12-20T05:30:46;93628.97;;;4.06;100.00
21658;BME280;10990;48.174;9.782;2023-12-20T05:33:12;93623.06;;;4.03;100.00
21658;BME280;10990;48.174;9.782;2023-12-20T05:35:38;93634.34;;;4.04;100.00
21658;BME280;10990;48.174;9.782;2023-12-20T05:38:05;93646.91;;;4.00;100.00
21658;BME280;10990;48.174;9.782;2023-12-20T05:40:31;93647.06;;;3.99;100.00
21658;BME280;10990;48.174;9.782;2023-12-20T05:42:57;93652.47;;;3.97;100.00
21658;BME280;10990;48.174;9.782;2023-12-20T05:45:23;93633.31;;;3.97;100.00
21658;BME280;10990;48.174;9.782;2023-12-20T05:47:52;93651.13;;;3.93;100.00
21658;BME280;10990;48.174;9.782;2023-12-20T05:50:18;93655.56;;;3.93;100.00
21658;BME280;10990;48.174;9.782;2023-12-20T05:52:44;93658.03;;;3.94;100.00
21658;BME280;10990;48.174;9.782;2023-12-20T05:55:10;93642.63;;;3.91;100.00
21658;BME280;10990;48.174;9.782;2023-12-20T05:57:36;93641.00;;;3.90;100.00
21658;BME280;10990;48.174;9.782;2023-12-20T06:00:03;93642.94;;;3.88;100.00
21658;BME280;10990;48.174;9.782;2023-12-20T06:02:38;93660.44;;;3.88;100.00
21658;BME280;10990;48.174;9.782;2023-12-20T06:05:07;93646.88;;;3.84;100.00
21658;BME280;10990;48.174;9.782;2023-12-20T06:07:33;93643.44;;;3.84;100.00
21658;BME280;10990;48.174;9.782;2023-12-20T06:10:00;93646.38;;;3.80;100.00
21658;BME280;10990;48.174;9.782;2023-12-20T06:12:26;93653.22;;;3.81;100.00
21658;BME280;10990;48.174;9.782;2023-12-20T06:14:52;93666.16;;;3.83;100.00
21658;BME280;10990;48.174;9.782;2023-12-20T06:17:18;93668.09;;;3.81;100.00
21658;BME280;10990;48.174;9.782;2023-12-20T06:19:45;93675.63;;;3.84;100.00
21658;BME280;10990;48.174;9.782;2023-12-20T06:22:13;93662.06;;;3.80;100.00
21658;BME280;10990;48.174;9.782;2023-12-20T06:24:40;93662.38;;;3.86;100.00
21658;BME280;10990;48.174;9.782;2023-12-20T06:27:06;93657.31;;;3.84;100.00
21658;BME280;10990;48.174;9.782;2023-12-20T06:29:32;93672.56;;;3.89;100.00
21658;BME280;10990;48.174;9.782;2023-12-20T06:31:58;93672.84;;;3.86;100.00
21658;BME280;10990;48.174;9.782;2023-12-20T06:34:24;93669.94;;;3.89;100.00
21658;BME280;10990;48.174;9.782;2023-12-20T06:36:51;93669.41;;;3.85;100.00
21658;BME280;10990;48.174;9.782;2023-12-20T06:39:19;93681.53;;;3.86;100.00
21658;BME280;10990;48.174;9.782;2023-12-20T06:41:46;93683.00;;;3.89;100.00
21658;BME280;10990;48.174;9.782;2023-12-20T06:44:12;93685.91;;;3.86;100.00
21658;BME280;10990;48.174;9.782;2023-12-20T06:46:38;93694.44;;;3.88;100.00
21658;BME280;10990;48.174;9.782;2023-12-20T06:49:04;93696.09;;;3.89;100.00
21658;BME280;10990;48.174;9.782;2023-12-20T06:51:30;94538.56;;;3.84;100.00
21658;BME280;10990;48.174;9.782;2023-12-20T06:53:56;94557.69;;;3.85;100.00
21658;BME280;10990;48.174;9.782;2023-12-20T06:56:25;94559.09;;;3.89;100.00
21658;BME280;10990;48.174;9.782;2023-12-20T06:58:51;94570.66;;;3.86;100.00
21658;BME280;10990;48.174;9.782;2023-12-20T07:01:17;94572.19;;;3.89;100.00
21658;BME280;10990;48.174;9.782;2023-12-20T07:03:43;94581.78;;;3.88;100.00
21658;BME280;10990;48.174;9.782;2023-12-20T07:06:09;94586.19;;;3.88;100.00
21658;BME280;10990;48.174;9.782;2023-12-20T07:08:36;94592.13;;;3.90;100.00
21658;BME280;10990;48.174;9.782;2023-12-20T07:11:02;94604.50;;;3.88;100.00
21658;BME280;10990;48.174;9.782;2023-12-20T07:13:31;94599.28;;;3.88;100.00
21658;BME280;10990;48.174;9.782;2023-12-20T07:15:57;94610.44;;;3.90;100.00
21658;BME280;10990;48.174;9.782;2023-12-20T07:18:23;94595.56;;;3.90;100.00
21658;BME280;10990;48.174;9.782;2023-12-20T07:20:49;94602.72;;;3.88;100.00
21658;BME280;10990;48.174;9.782;2023-12-20T07:23:16;94598.44;;;3.87;100.00
21658;BME280;10990;48.174;9.782;2023-12-20T07:25:42;94603.56;;;3.89;100.00
21658;BME280;10990;48.174;9.782;2023-12-20T07:28:08;94604.50;;;3.88;100.00
21658;BME280;10990;48.174;9.782;2023-12-20T07:30:37;94611.41;;;3.89;100.00
21658;BME280;10990;48.174;9.782;2023-12-20T07:33:04;94623.50;;;3.90;100.00
21658;BME280;10990;48.174;9.782;2023-12-20T07:35:30;94620.91;;;3.90;100.00
21658;BME280;10990;48.174;9.782;2023-12-20T07:37:56;94629.28;;;3.93;100.00
21658;BME280;10990;48.174;9.782;2023-12-20T07:40:22;94639.50;;;3.96;100.00
21658;BME280;10990;48.174;9.782;2023-12-20T07:42:49;94641.56;;;3.93;100.00
21658;BME280;10990;48.174;9.782;2023-12-20T07:45:15;94645.13;;;3.92;100.00
21658;BME280;10990;48.174;9.782;2023-12-20T07:47:44;94658.78;;;3.95;100.00
21658;BME280;10990;48.174;9.782;2023-12-20T07:50:11;94656.00;;;3.97;100.00
21658;BME280;10990;48.174;9.782;2023-12-20T07:52:37;94668.97;;;3.98;100.00
21658;BME280;10990;48.174;9.782;2023-12-20T07:55:04;94669.78;;;3.99;100.00
21658;BME280;10990;48.174;9.782;2023-12-20T07:57:31;94674.09;;;4.00;100.00
21658;BME280;10990;48.174;9.782;2023-12-20T07:59:57;94673.09;;;4.01;100.00
21658;BME280;10990;48.174;9.782;2023-12-20T08:02:23;94672.41;;;3.99;100.00
21658;BME280;10990;48.174;9.782;2023-12-20T08:04:52;94677.38;;;4.02;100.00
21658;BME280;10990;48.174;9.782;2023-12-20T08:07:18;94678.88;;;4.04;100.00
21658;BME280;10990;48.174;9.782;2023-12-20T08:09:44;94681.66;;;4.03;100.00
21658;BME280;10990;48.174;9.782;2023-12-20T08:12:10;94684.00;;;4.06;100.00
21658;BME280;10990;48.174;9.782;2023-12-20T08:14:36;94678.50;;;4.09;100.00
21658;BME280;10990;48.174;9.782;2023-12-20T08:17:03;94686.34;;;4.19;100.00
21658;BME280;10990;48.174;9.782;2023-12-20T08:19:29;94683.47;;;4.22;100.00
21658;BME280;10990;48.174;9.782;2023-12-20T08:21:58;94679.63;;;4.26;100.00
21658;BME280;10990;48.174;9.782;2023-12-20T08:24:24;94683.91;;;4.27;100.00
21658;BME280;10990;48.174;9.782;2023-12-20T08:26:50;94678.94;;;4.24;100.00
21658;BME280;10990;48.174;9.782;2023-12-20T08:29:16;94681.28;;;4.27;100.00
21658;BME280;10990;48.174;9.782;2023-12-20T08:31:43;94685.41;;;4.30;100.00
21658;BME280;10990;48.174;9.782;2023-12-20T08:34:09;94684.88;;;4.36;100.00
21658;BME280;10990;48.174;9.782;2023-12-20T08:36:35;94686.94;;;4.42;100.00
21658;BME280;10990;48.174;9.782;2023-12-20T08:39:04;94684.63;;;4.48;100.00
21658;BME280;10990;48.174;9.782;2023-12-20T08:41:30;94675.13;;;4.57;100.00
21658;BME280;10990;48.174;9.782;2023-12-20T08:43:56;94682.44;;;4.54;100.00
21658;BME280;10990;48.174;9.782;2023-12-20T08:46:22;94677.47;;;4.51;100.00
21658;BME280;10990;48.174;9.782;2023-12-20T08:48:48;94683.09;;;4.56;100.00
21658;BME280;10990;48.174;9.782;2023-12-20T08:51:14;94697.88;;;4.57;100.00
21658;BME280;10990;48.174;9.782;2023-12-20T08:53:41;94695.38;;;4.65;100.00
21658;BME280;10990;48.174;9.782;2023-12-20T08:56:10;94687.81;;;4.71;100.00
21658;BME280;10990;48.174;9.782;2023-12-20T08:58:36;94678.03;;;4.74;100.00
21658;BME280;10990;48.174;9.782;2023-12-20T09:01:02;94683.81;;;4.67;100.00
21658;BME280;10990;48.174;9.782;2023-12-20T09:03:28;94685.88;;;4.93;100.00
21658;BME280;10990;48.174;9.782;2023-12-20T09:05:54;94674.81;;;5.19;100.00
21658;BME280;10990;48.174;9.782;2023-12-20T09:08:20;94639.50;;;5.88;100.00
21658;BME280;10990;48.174;9.782;2023-12-20T09:10:47;94547.16;;;8.68;100.00
21658;BME280;10990;48.174;9.782;2023-12-20T09:13:16;94609.38;;;7.85;100.00
21658;BME280;10990;48.174;9.782;2023-12-20T09:15:42;94649.22;;;6.86;100.00
21658;BME280;10990;48.174;9.782;2023-12-20T09:18:08;94660.13;;;6.73;100.00
21658;BME280;10990;48.174;9.782;2023-12-20T09:20:34;94663.84;;;6.53;100.00
21658;BME280;10990;48.174;9.782;2023-12-20T09:23:01;94658.00;;;6.77;100.00
21658;BME280;10990;48.174;9.782;2023-12-20T09:25:27;94670.97;;;5.97;100.00
21658;BME280;10990;48.174;9.782;2023-12-20T09:27:53;94672.63;;;5.51;100.00
21658;BME280;10990;48.174;9.782;2023-12-20T09:30:22;94624.56;;;7.31;100.00
21658;BME280;10990;48.174;9.782;2023-12-20T09:32:48;94674.50;;;6.34;100.00
21658;BME280;10990;48.174;9.782;2023-12-20T09:35:14;94661.78;;;6.11;100.00
21658;BME280;10990;48.174;9.782;2023-12-20T09:37:40;94675.47;;;5.68;100.00
21658;BME280;10990;48.174;9.782;2023-12-20T09:40:10;94671.75;;;5.70;100.00
21658;BME280;10990;48.174;9.782;2023-12-20T09:42:39;94683.22;;;5.59;100.00
21658;BME280;10990;48.174;9.782;2023-12-20T09:45:09;94673.22;;;5.45;100.00
21658;BME280;10990;48.174;9.782;2023-12-20T09:47:40;94672.09;;;5.48;100.00
21658;BME280;10990;48.174;9.782;2023-12-20T09:50:08;94660.53;;;5.78;100.00
21658;BME280;10990;48.174;9.782;2023-12-20T09:52:34;94551.63;;;9.87;100.00
21658;BME280;10990;48.174;9.782;2023-12-20T09:55:03;94552.28;;;12.01;100.00
21658;BME280;10990;48.174;9.782;2023-12-20T09:57:30;94566.88;;;11.82;100.00
21658;BME280;10990;48.174;9.782;2023-12-20T09:59:56;94540.09;;;13.08;100.00
21658;BME280;10990;48.174;9.782;2023-12-20T10:02:25;94499.34;;;13.50;100.00
21658;BME280;10990;48.174;9.782;2023-12-20T10:04:54;94463.38;;;13.19;100.00
21658;BME280;10990;48.174;9.782;2023-12-20T10:07:21;94429.63;;;13.41;100.00
21658;BME280;10990;48.174;9.782;2023-12-20T10:09:47;94405.72;;;13.07;100.00
21658;BME280;10990;48.174;9.782;2023-12-20T10:12:14;94364.06;;;12.44;100.00
21658;BME280;10990;48.174;9.782;2023-12-20T10:14:40;93870.03;;;12.84;100.00
21658;BME280;10990;48.174;9.782;2023-12-20T10:17:06;93962.75;;;11.84;100.00
21658;BME280;10990;48.174;9.782;2023-12-20T10:19:33;94137.53;;;9.23;100.00
21658;BME280;10990;48.174;9.782;2023-12-20T10:22:04;94074.97;;;9.91;100.00
21658;BME280;10990;48.174;9.782;2023-12-20T10:24:31;94068.03;;;9.90;100.00
21658;BME280;10990;48.174;9.782;2023-12-20T10:27:04;94090.94;;;10.04;100.00
21658;BME280;10990;48.174;9.782;2023-12-20T10:29:32;93987.00;;;12.75;100.00
21658;BME280;10990;48.174;9.782;2023-12-20T10:31:58;94115.78;;;12.17;100.00
21658;BME280;10990;48.174;9.782;2023-12-20T10:34:24;94177.06;;;12.07;100.00
21658;BME280;10990;48.174;9.782;2023-12-20T10:36:51;94231.19;;;12.61;100.00
21658;BME280;10990;48.174;9.782;2023-12-20T10:39:21;94303.81;;;12.25;100.00
21658;BME280;10990;48.174;9.782;2023-12-20T10:41:48;94476.63;;;10.27;100.00
21658;BME280;10990;48.174;9.782;2023-12-20T10:44:14;94507.00;;;9.69;100.00
21658;BME280;10990;48.174;9.782;2023-12-20T10:46:41;94477.81;;;8.59;100.00
21658;BME280;10990;48.174;9.782;2023-12-20T10:49:08;94414.09;;;8.15;100.00
21658;BME280;10990;48.174;9.782;2023-12-20T10:51:36;94365.88;;;7.81;100.00
21658;BME280;10990;48.174;9.782;2023-12-20T10:54:03;94275.78;;;8.27;100.00
21658;BME280;10990;48.174;9.782;2023-12-20T10:56:32;94198.66;;;8.81;100.00
21658;BME280;10990;48.174;9.782;2023-12-20T10:59:02;94191.56;;;8.58;100.00
21658;BME280;10990;48.174;9.782;2023-12-20T11:01:29;94212.16;;;8.07;100.00
21658;BME280;10990;48.174;9.782;2023-12-20T11:03:56;94202.75;;;7.49;100.00
21658;BME280;10990;48.174;9.782;2023-12-20T11:06:38;94211.16;;;6.95;100.00
21658;BME280;10990;48.174;9.782;2023-12-20T11:09:12;94192.75;;;6.70;100.00
21658;BME280;10990;48.174;9.782;2023-12-20T11:11:57;94178.25;;;6.50;100.00
21658;BME280;10990;48.174;9.782;2023-12-20T11:14:29;94147.06;;;6.47;100.00
21658;BME280;10990;48.174;9.782;2023-12-20T11:17:07;94151.31;;;5.89;100.00
21658;BME280;10990;48.174;9.782;2023-12-20T11:19:36;94151.88;;;5.67;100.00
21658;BME280;10990;48.174;9.782;2023-12-20T11:22:04;94117.25;;;5.97;100.00
21658;BME280;10990;48.174;9.782;2023-12-20T11:24:31;94128.16;;;5.84;100.00
21658;BME280;10990;48.174;9.782;2023-12-20T11:27:00;94121.72;;;5.71;100.00
21658;BME280;10990;48.174;9.782;2023-12-20T11:29:33;94121.03;;;5.69;100.00
21658;BME280;10990;48.174;9.782;2023-12-20T11:32:01;94110.81;;;5.57;100.00
21658;BME280;10990;48.174;9.782;2023-12-20T11:34:27;94103.84;;;5.66;100.00
21658;BME280;10990;48.174;9.782;2023-12-20T11:36:57;94094.53;;;5.80;100.00
21658;BME280;10990;48.174;9.782;2023-12-20T11:39:25;94096.44;;;5.61;100.00
21658;BME280;10990;48.174;9.782;2023-12-20T11:41:52;94072.44;;;5.91;100.00
21658;BME280;10990;48.174;9.782;2023-12-20T11:44:22;94065.94;;;6.03;100.00
21658;BME280;10990;48.174;9.782;2023-12-20T11:46:49;94034.78;;;6.65;100.00
21658;BME280;10990;48.174;9.782;2023-12-20T11:49:15;94040.88;;;6.66;100.00
21658;BME280;10990;48.174;9.782;2023-12-20T11:51:41;94043.31;;;6.76;100.00
21658;BME280;10990;48.174;9.782;2023-12-20T11:54:07;94066.47;;;6.56;100.00
21658;BME280;10990;48.174;9.782;2023-12-20T11:56:34;94076.81;;;6.57;100.00
21658;BME280;10990;48.174;9.782;2023-12-20T11:59:00;94098.16;;;6.46;100.00
21658;BME280;10990;48.174;9.782;2023-12-20T12:01:29;94107.31;;;6.25;100.00
21658;BME280;10990;48.174;9.782;2023-12-20T12:04:03;94121.72;;;6.13;100.00
21658;BME280;10990;48.174;9.782;2023-12-20T12:06:29;94108.28;;;6.24;100.00
21658;BME280;10990;48.174;9.782;2023-12-20T12:08:55;94126.31;;;6.03;100.00
21658;BME280;10990;48.174;9.782;2023-12-20T12:11:21;94120.22;;;5.94;100.00
21658;BME280;10990;48.174;9.782;2023-12-20T12:13:48;94116.59;;;5.95;100.00
21658;BME280;10990;48.174;9.782;2023-12-20T12:16:17;94105.94;;;6.05;100.00
21658;BME280;10990;48.174;9.782;2023-12-20T12:18:46;94115.63;;;6.04;100.00
21658;BME280;10990;48.174;9.782;2023-12-20T12:21:19;94104.16;;;5.97;100.00
21658;BME280;10990;48.174;9.782;2023-12-20T12:23:45;94105.81;;;6.15;100.00
21658;BME280;10990;48.174;9.782;2023-12-20T12:26:11;94102.53;;;6.21;100.00
21658;BME280;10990;48.174;9.782;2023-12-20T12:28:40;94102.53;;;6.13;100.00
21658;BME280;10990;48.174;9.782;2023-12-20T12:31:06;94098.13;;;6.21;100.00
21658;BME280;10990;48.174;9.782;2023-12-20T12:33:33;94095.47;;;6.13;100.00
21658;BME280;10990;48.174;9.782;2023-12-20T12:36:03;94117.69;;;5.93;100.00
21658;BME280;10990;48.174;9.782;2023-12-20T12:38:30;94115.13;;;6.01;100.00
21658;BME280;10990;48.174;9.782;2023-12-20T12:40:56;94124.16;;;5.98;100.00
21658;BME280;10990;48.174;9.782;2023-12-20T12:43:23;94129.34;;;5.90;100.00
21658;BME280;10990;48.174;9.782;2023-12-20T12:45:49;94123.94;;;5.92;100.00
21658;BME280;10990;48.174;9.782;2023-12-20T12:48:15;94120.97;;;5.87;100.00
21658;BME280;10990;48.174;9.782;2023-12-20T12:50:41;94113.31;;;5.93;100.00
21658;BME280;10990;48.174;9.782;2023-12-20T12:53:10;94100.75;;;6.21;100.00
21658;BME280;10990;48.174;9.782;2023-12-20T12:55:36;94098.16;;;6.38;100.00
21658;BME280;10990;48.174;9.782;2023-12-20T12:58:03;94094.56;;;6.63;100.00